Time;durP1;ratioP1;P1;durP2;ratioP2;P2;SDS_P1;SDS_P2;PMS_P1;PMS_P2;Temp;Humidity;BMP_temperature;BMP_pressure;BME280_temperature;BME280_humidity;BME280_pressure;Samples;Min_cycle;Max_cycle;Signal;HPM_P1;HPM_P2
2023/04/11 00:01:25;;;;;;;0.20;0.20;;;9.20;99.90;;;;;;5056701;28;20028;-75
2023/04/11 00:03:51;;;;;;;0.20;0.20;;;9.20;99.90;;;;;;5055737;28;20032;-75
2023/04/11 00:06:17;;;;;;;0.10;0.10;;;9.10;99.90;;;;;;5057181;28;20025;-76
2023/04/11 00:08:43;;;;;;;0.10;0.10;;;9.20;99.90;;;;;;5039432;28;20033;-76
2023/04/11 00:11:09;;;;;;;0.20;0.20;;;9.20;99.90;;;;;;5057078;28;20055;-75
2023/04/11 00:13:36;;;;;;;0.20;0.20;;;9.20;99.90;;;;;;5037806;28;20433;-75
2023/04/11 00:16:02;;;;;;;0.10;0.10;;;9.20;99.90;;;;;;5056246;28;20394;-75
2023/04/11 00:18:28;;;;;;;0.13;0.13;;;9.20;99.90;;;;;;5056203;28;20017;-75
2023/04/11 00:20:53;;;;;;;0.15;0.15;;;9.20;99.90;;;;;;5056422;28;20031;-76
2023/04/11 00:23:19;;;;;;;0.17;0.17;;;9.20;99.90;;;;;;5056561;28;20115;-75
2023/04/11 00:25:44;;;;;;;0.20;0.20;;;9.20;99.90;;;;;;5055245;28;20534;-74
2023/04/11 00:28:10;;;;;;;0.20;0.20;;;9.10;99.90;;;;;;5055939;28;20117;-74
2023/04/11 00:30:35;;;;;;;0.20;0.20;;;9.00;99.90;;;;;;5055991;28;20025;-74
2023/04/11 00:33:02;;;;;;;0.15;0.15;;;8.70;99.90;;;;;;5055898;28;20029;-74
2023/04/11 00:35:28;;;;;;;0.10;0.10;;;8.50;99.90;;;;;;5038238;28;20017;-74
2023/04/11 00:37:55;;;;;;;0.20;0.20;;;8.50;99.90;;;;;;5055272;28;20028;-74
2023/04/11 00:40:21;;;;;;;0.17;0.17;;;8.40;99.90;;;;;;5055913;28;20017;-74
2023/04/11 00:42:47;;;;;;;0.10;0.10;;;8.30;99.90;;;;;;5192594;22;20111;-74
2023/04/11 00:45:13;;;;;;;0.15;0.15;;;8.30;99.90;;;;;;5037689;28;20440;-74
2023/04/11 00:47:39;;;;;;;0.10;0.10;;;8.30;99.90;;;;;;5055575;28;20022;-74
2023/04/11 00:50:06;;;;;;;0.13;0.13;;;8.30;99.90;;;;;;5055102;28;20029;-74
2023/04/11 00:52:32;;;;;;;0.20;0.20;;;8.30;99.90;;;;;;5055534;28;20449;-74
2023/04/11 00:55:00;;;;;;;0.20;0.20;;;8.50;99.90;;;;;;5055514;28;20025;-75
2023/04/11 00:57:25;;;;;;;0.17;0.17;;;8.50;99.90;;;;;;5055558;28;20083;-74
2023/04/11 00:59:51;;;;;;;0.20;0.20;;;8.80;99.90;;;;;;5054632;28;20471;-74
2023/04/11 01:02:17;;;;;;;0.13;0.13;;;8.90;99.90;;;;;;5055165;28;20545;-74
2023/04/11 01:04:44;;;;;;;0.20;0.20;;;9.00;99.90;;;;;;5055448;28;20052;-74
2023/04/11 01:07:13;;;;;;;0.10;0.10;;;9.10;99.90;;;;;;5037292;28;20025;-75
2023/04/11 01:09:39;;;;;;;0.20;0.20;;;9.10;99.90;;;;;;5055163;28;20101;-73
2023/04/11 01:12:05;;;;;;;0.10;0.10;;;9.10;99.90;;;;;;5040492;22;20037;-74
2023/04/11 01:14:31;;;;;;;0.10;0.10;;;9.20;99.90;;;;;;5035461;28;20036;-74
2023/04/11 01:17:00;;;;;;;0.20;0.20;;;9.20;99.90;;;;;;5035342;28;20021;-74
2023/04/11 01:19:26;;;;;;;0.10;0.10;;;9.20;99.90;;;;;;5053224;28;20028;-74
2023/04/11 01:21:54;;;;;;;0.20;0.20;;;9.10;99.90;;;;;;5053395;28;20029;-74
2023/04/11 01:24:20;;;;;;;0.20;0.20;;;9.10;99.90;;;;;;5044887;28;20390;-74
2023/04/11 01:26:45;;;;;;;0.20;0.20;;;9.10;99.90;;;;;;5043825;28;20046;-74
2023/04/11 01:29:11;;;;;;;0.20;0.20;;;9.10;99.90;;;;;;5039830;28;20056;-74
2023/04/11 01:34:15;;;;;;;0.20;0.20;;;8.90;99.90;;;;;;5094020;22;20479;-74
2023/04/11 01:37:04;;;;;;;0.10;0.10;;;9.00;99.90;;;;;;5056385;28;20447;-74
2023/04/11 01:39:39;;;;;;;0.10;0.10;;;8.90;99.90;;;;;;5073493;28;20028;-74
2023/04/11 01:42:05;;;;;;;0.20;0.20;;;8.50;99.90;;;;;;5074528;28;20024;-74
2023/04/11 01:44:32;;;;;;;0.20;0.20;;;8.70;99.90;;;;;;5074771;28;20032;-74
2023/04/11 01:46:58;;;;;;;0.20;0.20;;;8.70;99.90;;;;;;5056923;28;20067;-74
2023/04/11 01:49:24;;;;;;;0.20;0.20;;;8.70;99.90;;;;;;5074238;28;20028;-74
2023/04/11 01:51:50;;;;;;;0.10;0.10;;;8.70;99.90;;;;;;5056197;28;20033;-74
2023/04/11 01:54:16;;;;;;;0.20;0.20;;;8.70;99.90;;;;;;5074303;28;20147;-74
2023/04/11 01:56:41;;;;;;;0.13;0.13;;;8.70;99.90;;;;;;5074467;28;20394;-74
2023/04/11 01:59:07;;;;;;;0.20;0.20;;;8.60;99.90;;;;;;5074982;28;20029;-74
2023/04/11 02:01:33;;;;;;;0.20;0.20;;;8.50;99.90;;;;;;5073642;28;20024;-74
2023/04/11 02:04:01;;;;;;;0.20;0.20;;;8.50;99.90;;;;;;5074253;28;20017;-74
2023/04/11 02:06:27;;;;;;;0.20;0.20;;;8.40;99.90;;;;;;5074144;28;20074;-74
2023/04/11 02:08:53;;;;;;;0.20;0.20;;;8.40;99.90;;;;;;5074019;28;20418;-74
2023/04/11 02:11:18;;;;;;;0.13;0.13;;;8.40;99.90;;;;;;5074249;28;20029;-74
2023/04/11 02:13:47;;;;;;;0.20;0.20;;;8.40;99.90;;;;;;5073425;28;20074;-74
2023/04/11 02:16:16;;;;;;;0.10;0.10;;;8.40;99.90;;;;;;5073784;28;20027;-74
2023/04/11 02:18:43;;;;;;;0.20;0.20;;;8.30;99.90;;;;;;5074142;28;20016;-74
2023/04/11 02:21:09;;;;;;;0.20;0.20;;;8.30;99.90;;;;;;5073905;28;20385;-74
2023/04/11 02:23:35;;;;;;;0.20;0.20;;;8.30;99.90;;;;;;5073594;28;20012;-74
2023/04/11 02:26:01;;;;;;;0.20;0.20;;;8.20;99.90;;;;;;5073953;28;20103;-75
2023/04/11 02:28:27;;;;;;;0.20;0.20;;;8.20;99.90;;;;;;5073521;28;20021;-74
2023/04/11 02:30:55;;;;;;;0.20;0.20;;;8.10;99.90;;;;;;5073193;28;20019;-74
2023/04/11 02:33:21;;;;;;;0.20;0.20;;;8.10;99.90;;;;;;5055267;28;20077;-74
2023/04/11 02:35:47;;;;;;;0.20;0.20;;;8.20;99.90;;;;;;5073777;28;20103;-74
2023/04/11 02:38:13;;;;;;;0.10;0.10;;;8.30;99.90;;;;;;5073576;28;20111;-74
2023/04/11 02:40:39;;;;;;;0.20;0.20;;;8.30;99.90;;;;;;5073129;28;20074;-74
2023/04/11 02:43:04;;;;;;;0.13;0.13;;;8.40;99.90;;;;;;5073606;28;20425;-74
2023/04/11 02:45:30;;;;;;;0.15;0.15;;;8.40;99.90;;;;;;5073711;28;20028;-74
2023/04/11 02:47:57;;;;;;;0.20;0.20;;;8.40;99.90;;;;;;5073584;28;20028;-74
2023/04/11 02:50:24;;;;;;;0.20;0.20;;;8.50;99.90;;;;;;5073216;28;20025;-74
2023/04/11 02:52:50;;;;;;;0.20;0.20;;;8.50;99.90;;;;;;5073396;28;20021;-74
2023/04/11 02:55:16;;;;;;;0.20;0.20;;;8.50;99.90;;;;;;5073715;28;20074;-75
2023/04/11 02:57:41;;;;;;;0.20;0.20;;;8.40;99.90;;;;;;5072678;28;20066;-74
2023/04/11 03:00:08;;;;;;;0.20;0.20;;;8.40;99.90;;;;;;5073601;28;20479;-74
2023/04/11 03:02:34;;;;;;;0.20;0.20;;;8.50;99.90;;;;;;5073602;28;20020;-74
2023/04/11 03:05:03;;;;;;;0.10;0.10;;;8.50;99.90;;;;;;5055273;28;20032;-74
2023/04/11 03:07:32;;;;;;;0.20;0.20;;;8.50;99.90;;;;;;5055320;28;20021;-74
2023/04/11 03:09:58;;;;;;;0.20;0.20;;;8.50;99.90;;;;;;5073482;28;20052;-74
2023/04/11 03:12:24;;;;;;;0.20;0.20;;;8.70;99.90;;;;;;5072599;28;20024;-74
2023/04/11 03:14:49;;;;;;;0.10;0.10;;;8.70;99.90;;;;;;5073204;28;20505;-74
2023/04/11 03:17:17;;;;;;;0.13;0.13;;;8.70;99.90;;;;;;5073342;28;20389;-74
2023/04/11 03:19:42;;;;;;;0.10;0.10;;;8.70;99.90;;;;;;5072938;28;20470;-74
2023/04/11 03:22:10;;;;;;;0.20;0.20;;;8.80;99.90;;;;;;5073363;28;20029;-75
2023/04/11 03:24:38;;;;;;;0.20;0.20;;;8.80;99.90;;;;;;5073064;28;20033;-74
2023/04/11 03:27:04;;;;;;;0.20;0.20;;;8.80;99.90;;;;;;5075131;28;20025;-74
2023/04/11 03:29:29;;;;;;;0.10;0.10;;;8.80;99.90;;;;;;5077391;28;20025;-74
2023/04/11 03:31:55;;;;;;;0.10;0.10;;;8.80;99.90;;;;;;5082045;22;20033;-74
2023/04/11 03:34:20;;;;;;;0.10;0.10;;;8.70;99.90;;;;;;5039079;28;20025;-74
2023/04/11 03:36:46;;;;;;;0.20;0.20;;;8.70;99.90;;;;;;5056658;28;20016;-74
2023/04/11 03:39:11;;;;;;;0.20;0.20;;;8.70;99.90;;;;;;5057009;28;20052;-74
2023/04/11 03:41:37;;;;;;;0.10;0.10;;;8.60;99.90;;;;;;5056860;28;20029;-74
2023/04/11 03:44:03;;;;;;;0.10;0.10;;;8.60;99.90;;;;;;5056749;28;20079;-74
2023/04/11 03:46:29;;;;;;;0.20;0.20;;;8.50;99.90;;;;;;5056447;28;20430;-74
2023/04/11 03:48:54;;;;;;;0.10;0.10;;;8.50;99.90;;;;;;5056749;28;20078;-74
2023/04/11 03:51:20;;;;;;;0.10;0.10;;;8.40;99.90;;;;;;5056601;28;20060;-74
2023/04/11 03:53:45;;;;;;;0.10;0.10;;;8.40;99.90;;;;;;5056603;28;20017;-74
2023/04/11 03:56:11;;;;;;;0.10;0.10;;;8.40;99.90;;;;;;5056257;28;20021;-75
2023/04/11 03:58:37;;;;;;;0.20;0.20;;;8.40;99.90;;;;;;5056511;28;20017;-74
2023/04/11 04:01:05;;;;;;;0.20;0.20;;;8.30;99.90;;;;;;5056708;28;20025;-74
2023/04/11 04:03:31;;;;;;;0.20;0.20;;;8.30;99.90;;;;;;5056363;28;20401;-74
2023/04/11 04:05:56;;;;;;;0.10;0.10;;;8.30;99.90;;;;;;5056461;28;20029;-74
2023/04/11 04:08:22;;;;;;;0.20;0.20;;;8.30;99.90;;;;;;5055782;28;20394;-74
2023/04/11 04:10:47;;;;;;;0.10;0.10;;;8.20;99.90;;;;;;5039161;28;20029;-75
2023/04/11 04:13:13;;;;;;;0.20;0.20;;;8.40;99.90;;;;;;5038744;28;20048;-74
2023/04/11 04:15:38;;;;;;;0.10;0.10;;;8.30;99.90;;;;;;5060427;28;20103;-74
2023/04/11 04:18:04;;;;;;;0.10;0.10;;;8.20;99.90;;;;;;5076712;28;20474;-74
2023/04/11 04:20:29;;;;;;;0.17;0.17;;;8.20;99.90;;;;;;5069796;28;20390;-74
2023/04/11 04:22:55;;;;;;;0.10;0.10;;;8.20;99.90;;;;;;5055718;28;20052;-75
2023/04/11 04:25:20;;;;;;;0.20;0.20;;;8.30;99.90;;;;;;5056252;28;20025;-75
2023/04/11 04:27:46;;;;;;;0.20;0.20;;;8.20;99.90;;;;;;5056231;28;20029;-75
2023/04/11 04:30:17;;;;;;;0.15;0.15;;;8.20;99.90;;;;;;5055932;28;20029;-75
2023/04/11 04:32:44;;;;;;;0.15;0.15;;;8.20;99.90;;;;;;5055153;28;20021;-74
2023/04/11 04:35:10;;;;;;;0.20;0.20;;;8.10;99.90;;;;;;5055980;28;20021;-75
2023/04/11 04:37:44;;;;;;;0.10;0.10;;;8.10;99.90;;;;;;5055405;28;20048;-74
2023/04/11 04:40:12;;;;;;;0.17;0.17;;;8.10;99.90;;;;;;5037625;28;20973;-75
2023/04/11 04:42:40;;;;;;;0.10;0.10;;;8.00;99.90;;;;;;5055899;28;20032;-74
2023/04/11 04:45:07;;;;;;;0.10;0.10;;;8.10;99.90;;;;;;5055431;28;20398;-74
2023/04/11 04:47:35;;;;;;;0.10;0.10;;;8.00;99.90;;;;;;5055769;28;20040;-75
2023/04/11 04:50:01;;;;;;;0.15;0.15;;;8.00;99.90;;;;;;5037630;28;20075;-74
2023/04/11 04:52:27;;;;;;;0.20;0.20;;;8.00;99.90;;;;;;5037399;28;20487;-74
2023/04/11 04:54:56;;;;;;;0.20;0.20;;;7.90;99.90;;;;;;5055196;28;20036;-74
2023/04/11 04:57:27;;;;;;;0.20;0.20;;;7.90;99.90;;;;;;5055699;28;20021;-74
2023/04/11 04:59:53;;;;;;;0.20;0.20;;;7.90;99.90;;;;;;5055023;28;20029;-74
2023/04/11 05:02:18;;;;;;;0.20;0.20;;;7.90;99.90;;;;;;5071146;22;20068;-75
2023/04/11 05:04:44;;;;;;;0.20;0.20;;;7.90;99.90;;;;;;5055481;28;20056;-74
2023/04/11 05:07:12;;;;;;;0.20;0.20;;;7.90;99.90;;;;;;5037461;28;20088;-75
2023/04/11 05:09:38;;;;;;;0.20;0.20;;;7.90;99.90;;;;;;5054995;28;20023;-74
2023/04/11 05:12:04;;;;;;;0.20;0.20;;;7.90;99.90;;;;;;5055089;28;20115;-74
2023/04/11 05:14:29;;;;;;;0.10;0.10;;;7.80;99.90;;;;;;5055143;28;20436;-75
2023/04/11 05:16:55;;;;;;;0.20;0.20;;;7.80;99.90;;;;;;5055472;28;20017;-75
2023/04/11 05:19:20;;;;;;;0.20;0.20;;;7.80;99.90;;;;;;5055281;28;20025;-75
2023/04/11 05:24:19;;;;;;;0.20;0.20;;;7.80;99.90;;;;;;4994449;28;20046;-74
2023/04/11 05:26:44;;;;;;;0.20;0.20;;;7.80;99.90;;;;;;5007446;28;20275;-75
2023/04/11 05:29:10;;;;;;;0.20;0.20;;;7.70;99.90;;;;;;5015302;28;20024;-75
2023/04/11 05:31:36;;;;;;;0.20;0.20;;;7.70;99.90;;;;;;5015356;28;20040;-74
2023/04/11 05:34:02;;;;;;;0.20;0.20;;;7.70;99.90;;;;;;5014918;28;20018;-74
2023/04/11 05:36:28;;;;;;;0.10;0.10;;;7.80;99.90;;;;;;5014242;28;20088;-74
2023/04/11 05:38:53;;;;;;;0.10;0.10;;;7.80;99.90;;;;;;4995512;28;20058;-75
2023/04/11 05:41:19;;;;;;;0.13;0.13;;;7.80;99.90;;;;;;4994854;28;20026;-74
2023/04/11 05:43:48;;;;;;;0.10;0.10;;;7.70;99.90;;;;;;4995453;28;20019;-74
2023/04/11 05:46:16;;;;;;;0.17;0.17;;;7.70;99.90;;;;;;4995235;28;20022;-74
2023/04/11 05:48:41;;;;;;;0.20;0.20;;;7.70;99.90;;;;;;4993053;28;20045;-75
2023/04/11 05:51:07;;;;;;;0.10;0.10;;;7.70;99.90;;;;;;4995516;28;20058;-74
2023/04/11 05:53:33;;;;;;;0.10;0.10;;;7.70;99.90;;;;;;5035194;23;20049;-74
2023/04/11 05:56:00;;;;;;;0.10;0.10;;;7.80;99.90;;;;;;5036323;28;20398;-74
2023/04/11 05:58:25;;;;;;;0.20;0.20;;;7.70;99.90;;;;;;5054952;28;20100;-74
2023/04/11 06:00:51;;;;;;;0.20;0.20;;;7.70;99.90;;;;;;5054459;28;20053;-74
2023/04/11 06:03:16;;;;;;;0.20;0.20;;;7.70;99.90;;;;;;5054286;28;20600;-75
2023/04/11 06:05:42;;;;;;;0.20;0.20;;;7.70;99.90;;;;;;5053904;28;20060;-75
2023/04/11 06:08:09;;;;;;;0.10;0.10;;;7.80;99.90;;;;;;5054363;28;20033;-75
2023/04/11 06:10:37;;;;;;;0.20;0.20;;;7.80;99.90;;;;;;5036103;28;20036;-77
2023/04/11 06:13:03;;;;;;;0.20;0.20;;;7.80;99.90;;;;;;5111293;23;20043;-77
2023/04/11 06:15:28;;;;;;;0.10;0.10;;;7.90;99.90;;;;;;5075439;28;20466;-77
2023/04/11 06:17:54;;;;;;;0.10;0.10;;;8.00;99.90;;;;;;5074678;28;20012;-77
2023/04/11 06:20:21;;;;;;;0.10;0.10;;;8.00;99.90;;;;;;5073561;28;20049;-75
2023/04/11 06:22:50;;;;;;;0.10;0.10;;;8.00;99.90;;;;;;5074037;28;20104;-76
2023/04/11 06:25:19;;;;;;;0.10;0.10;;;8.00;99.90;;;;;;5056107;28;20082;-76
2023/04/11 06:27:44;;;;;;;0.10;0.10;;;8.00;99.90;;;;;;5073526;28;20025;-75
2023/04/11 06:30:10;;;;;;;0.10;0.10;;;8.10;99.90;;;;;;5073675;28;20047;-75
2023/04/11 06:32:41;;;;;;;0.20;0.20;;;8.00;99.90;;;;;;5073715;28;20552;-76
2023/04/11 06:35:06;;;;;;;0.10;0.10;;;8.10;99.90;;;;;;5088612;22;20102;-73
2023/04/11 06:37:32;;;;;;;0.10;0.10;;;8.10;99.90;;;;;;5055317;28;20025;-74
2023/04/11 06:39:59;;;;;;;0.10;0.10;;;8.00;99.90;;;;;;5055388;28;20100;-73
2023/04/11 06:42:25;;;;;;;0.20;0.20;;;8.10;99.90;;;;;;5055732;28;20398;-73
2023/04/11 06:44:50;;;;;;;0.10;0.10;;;8.10;99.90;;;;;;5055286;28;20478;-74
2023/04/11 06:47:16;;;;;;;0.20;0.20;;;8.10;99.90;;;;;;5055053;28;20119;-72
2023/04/11 06:49:41;;;;;;;0.17;0.17;;;8.10;99.90;;;;;;5037500;28;20036;-73
2023/04/11 06:52:07;;;;;;;0.25;0.25;;;8.10;99.90;;;;;;5055396;28;20037;-73
2023/04/11 06:54:32;;;;;;;0.20;0.20;;;8.10;99.90;;;;;;5055575;28;20033;-73
2023/04/11 06:56:58;;;;;;;0.10;0.10;;;8.10;99.90;;;;;;5055112;28;20055;-74
2023/04/11 06:59:23;;;;;;;0.13;0.13;;;8.20;99.90;;;;;;5055590;28;20029;-73
2023/04/11 07:01:49;;;;;;;0.10;0.10;;;8.20;99.90;;;;;;5055540;28;20032;-73
2023/04/11 07:04:15;;;;;;;0.10;0.10;;;8.20;99.90;;;;;;5055802;28;20036;-73
2023/04/11 07:06:41;;;;;;;0.17;0.17;;;8.20;99.90;;;;;;5054931;28;20434;-73
2023/04/11 07:09:08;;;;;;;0.10;0.10;;;8.20;99.90;;;;;;5055295;28;20033;-73
2023/04/11 07:11:34;;;;;;;0.10;0.10;;;8.30;99.90;;;;;;5035439;28;20025;-73
2023/04/11 07:14:00;;;;;;;0.20;0.20;;;8.30;99.90;;;;;;5035106;28;20434;-73
2023/04/11 07:16:26;;;;;;;0.10;0.10;;;8.50;99.90;;;;;;5035328;28;20420;-72
2023/04/11 07:18:53;;;;;;;0.10;0.10;;;8.60;99.90;;;;;;5040987;28;20024;-72
2023/04/11 07:21:18;;;;;;;0.10;0.10;;;8.60;99.90;;;;;;5055095;28;20111;-73
2023/04/11 07:23:44;;;;;;;0.10;0.10;;;8.70;99.90;;;;;;5055168;28;20028;-73
2023/04/11 07:26:11;;;;;;;0.10;0.10;;;8.60;99.90;;;;;;5055766;28;20028;-73
2023/04/11 07:28:39;;;;;;;0.10;0.10;;;8.50;99.90;;;;;;5054909;28;20025;-73
2023/04/11 07:31:06;;;;;;;0.10;0.10;;;8.50;99.90;;;;;;5054730;28;20098;-73
2023/04/11 07:33:32;;;;;;;0.10;0.10;;;8.50;99.90;;;;;;5054413;28;20103;-73
2023/04/11 07:35:58;;;;;;;0.10;0.10;;;8.50;99.90;;;;;;5062246;22;20052;-73
2023/04/11 07:38:28;;;;;;;0.15;0.15;;;8.50;99.90;;;;;;5055399;28;20017;-72
2023/04/11 07:40:55;;;;;;;0.20;0.20;;;8.60;99.90;;;;;;5054917;28;20021;-73
2023/04/11 07:43:21;;;;;;;0.10;0.10;;;8.60;99.90;;;;;;5036655;28;20021;-74
2023/04/11 07:45:46;;;;;;;0.10;0.10;;;8.60;99.90;;;;;;5036426;28;20031;-73
2023/04/11 07:48:12;;;;;;;0.20;0.20;;;8.70;99.90;;;;;;5054687;28;20116;-73
2023/04/11 07:50:37;;;;;;;0.10;0.10;;;8.60;99.90;;;;;;5055094;28;20051;-72
2023/04/11 07:53:03;;;;;;;0.10;0.10;;;8.60;99.90;;;;;;5054491;28;20037;-72
2023/04/11 07:55:28;;;;;;;0.20;0.20;;;8.60;99.90;;;;;;5054565;28;20398;-72
2023/04/11 07:57:54;;;;;;;0.20;0.20;;;8.60;99.90;;;;;;5054269;28;20029;-72
2023/04/11 08:00:21;;;;;;;0.10;0.10;;;8.60;99.90;;;;;;5055085;28;20017;-72
2023/04/11 08:02:46;;;;;;;0.20;0.20;;;8.60;99.90;;;;;;5054679;28;20032;-72
2023/04/11 08:05:12;;;;;;;0.10;0.10;;;8.70;99.90;;;;;;5054556;28;20429;-72
2023/04/11 08:07:37;;;;;;;0.20;0.20;;;8.80;99.90;;;;;;5036775;28;20414;-72
2023/04/11 08:10:04;;;;;;;0.10;0.10;;;8.90;99.90;;;;;;5054888;28;20029;-72
2023/04/11 08:12:30;;;;;;;0.10;0.10;;;9.10;99.90;;;;;;5055734;28;20025;-72
2023/04/11 08:14:55;;;;;;;0.20;0.20;;;9.20;99.90;;;;;;5057645;28;20024;-73
2023/04/11 08:17:24;;;;;;;0.10;0.10;;;9.40;99.90;;;;;;5039987;28;20013;-72
2023/04/11 08:19:50;;;;;;;0.20;0.20;;;9.40;99.90;;;;;;5039813;28;20063;-72
2023/04/11 08:22:16;;;;;;;0.10;0.10;;;9.40;99.90;;;;;;5058454;28;20033;-72
2023/04/11 08:24:42;;;;;;;0.20;0.20;;;9.40;99.90;;;;;;5058146;28;20051;-72
2023/04/11 08:27:10;;;;;;;0.10;0.10;;;9.40;99.90;;;;;;5058091;28;20478;-72
2023/04/11 08:29:36;;;;;;;0.20;0.20;;;9.50;99.90;;;;;;5057600;28;20029;-72
2023/04/11 08:32:01;;;;;;;0.13;0.13;;;9.50;99.90;;;;;;5057818;28;20086;-72
2023/04/11 08:34:27;;;;;;;0.20;0.20;;;9.50;99.90;;;;;;5057802;28;20033;-72
2023/04/11 08:36:52;;;;;;;0.20;0.20;;;9.40;99.90;;;;;;5057910;28;20028;-72
2023/04/11 08:39:18;;;;;;;0.10;0.10;;;9.30;99.90;;;;;;5057152;28;20375;-72
2023/04/11 08:41:44;;;;;;;0.20;0.20;;;9.30;99.90;;;;;;5057697;28;20056;-72
2023/04/11 08:44:13;;;;;;;0.20;0.20;;;9.60;99.90;;;;;;5057447;28;20077;-73
2023/04/11 08:46:42;;;;;;;0.13;0.13;;;9.70;99.90;;;;;;5057987;28;20544;-73
2023/04/11 08:49:08;;;;;;;0.10;0.10;;;9.40;99.90;;;;;;5057408;28;20036;-72
2023/04/11 08:51:33;;;;;;;0.20;0.20;;;9.20;99.90;;;;;;5057133;28;20021;-73
2023/04/11 08:54:04;;;;;;;0.10;0.10;;;9.20;99.90;;;;;;5056772;28;20021;-73
2023/04/11 08:56:30;;;;;;;0.10;0.10;;;9.10;99.90;;;;;;5057831;28;20037;-73
2023/04/11 08:58:55;;;;;;;0.20;0.20;;;9.00;99.90;;;;;;5057488;28;20016;-72
2023/04/11 09:01:33;;;;;;;0.10;0.10;;;9.00;99.90;;;;;;5056802;28;20447;-73
2023/04/11 09:04:00;;;;;;;0.20;0.20;;;9.00;99.90;;;;;;5039171;28;20028;-73
2023/04/11 09:06:29;;;;;;;0.10;0.10;;;9.10;99.90;;;;;;5039256;28;20025;-73
2023/04/11 09:08:57;;;;;;;0.20;0.20;;;9.30;99.90;;;;;;5052404;28;20014;-73
2023/04/11 09:11:23;;;;;;;0.10;0.10;;;9.40;99.90;;;;;;5037459;28;20021;-73
2023/04/11 09:14:04;;;;;;;0.10;0.10;;;9.30;99.90;;;;;;5037615;28;20024;-73
2023/04/11 09:16:30;;;;;;;0.20;0.20;;;9.50;99.90;;;;;;5040603;28;20020;-72
2023/04/11 09:18:55;;;;;;;0.10;0.10;;;9.60;99.90;;;;;;5057174;28;20021;-72
2023/04/11 09:21:21;;;;;;;0.10;0.10;;;9.90;99.90;;;;;;5056314;28;20486;-73
2023/04/11 09:23:46;;;;;;;0.10;0.10;;;9.90;99.90;;;;;;5057103;28;20388;-72
2023/04/11 09:26:23;;;;;;;0.10;0.10;;;9.90;99.90;;;;;;5057181;28;20028;-72
2023/04/11 09:28:52;;;;;;;0.20;0.20;;;9.90;99.90;;;;;;5057292;28;20526;-72
2023/04/11 09:31:18;;;;;;;0.20;0.20;;;10.20;99.90;;;;;;5056733;28;20033;-72
2023/04/11 09:34:02;;;;;;;0.20;0.20;;;10.10;99.90;;;;;;5038938;28;20025;-72
2023/04/11 09:36:31;;;;;;;0.10;0.10;;;9.70;99.90;;;;;;5056702;28;20033;-72
2023/04/11 09:38:57;;;;;;;0.10;0.10;;;9.40;99.90;;;;;;5056629;28;20082;-73
2023/04/11 09:41:31;;;;;;;0.10;0.10;;;9.10;99.90;;;;;;5037790;28;20036;-72
2023/04/11 09:43:56;;;;;;;0.20;0.20;;;9.00;99.90;;;;;;5056471;28;20127;-73
2023/04/11 09:46:22;;;;;;;0.20;0.20;;;9.00;99.90;;;;;;5056482;28;20056;-72
2023/04/11 09:48:49;;;;;;;0.10;0.10;;;8.90;99.90;;;;;;5056631;28;20028;-72
2023/04/11 09:51:16;;;;;;;0.20;0.20;;;8.80;99.90;;;;;;5056478;28;20021;-72
2023/04/11 09:53:42;;;;;;;0.10;0.10;;;8.70;99.90;;;;;;5055996;28;20025;-72
2023/04/11 09:56:08;;;;;;;0.20;0.20;;;8.80;99.90;;;;;;5055976;28;20028;-72
2023/04/11 09:58:36;;;;;;;0.20;0.20;;;8.80;99.90;;;;;;5056127;28;20013;-72
2023/04/11 10:01:06;;;;;;;0.20;0.20;;;8.90;99.90;;;;;;5056642;28;20075;-72
2023/04/11 10:03:35;;;;;;;0.20;0.20;;;9.00;99.90;;;;;;5056025;28;20028;-72
2023/04/11 10:06:13;;;;;;;0.15;0.15;;;9.30;99.90;;;;;;5055212;28;20103;-72
2023/04/11 10:08:41;;;;;;;0.20;0.20;;;9.20;99.90;;;;;;5055864;28;20074;-72
2023/04/11 10:11:09;;;;;;;0.13;0.13;;;9.10;99.90;;;;;;5055765;28;20029;-72
2023/04/11 10:13:38;;;;;;;0.17;0.17;;;9.20;99.90;;;;;;5038457;28;20060;-72
2023/04/11 10:16:08;;;;;;;0.20;0.20;;;9.30;99.90;;;;;;5037953;28;20067;-73
2023/04/11 10:18:35;;;;;;;0.10;0.10;;;9.40;99.90;;;;;;5038188;28;20017;-72
2023/04/11 10:21:02;;;;;;;0.10;0.10;;;9.30;99.90;;;;;;5055917;28;20090;-73
2023/04/11 10:23:28;;;;;;;0.20;0.20;;;9.40;99.90;;;;;;5055434;28;20025;-73
2023/04/11 10:25:57;;;;;;;0.10;0.10;;;9.80;99.90;;;;;;5055793;28;20499;-73
2023/04/11 10:28:33;;;;;;;0.20;0.20;;;9.90;99.90;;;;;;5055413;28;20025;-73
2023/04/11 10:31:03;;;;;;;0.10;0.10;;;9.80;99.90;;;;;;5055805;28;20033;-73
2023/04/11 10:33:29;;;;;;;0.13;0.13;;;9.60;99.90;;;;;;5055804;28;20502;-73
2023/04/11 10:36:08;;;;;;;0.20;0.20;;;9.50;99.90;;;;;;5055086;28;20494;-73
2023/04/11 10:38:40;;;;;;;0.10;0.10;;;9.50;99.90;;;;;;5056054;28;20082;-73
2023/04/11 10:41:32;;;;;;;0.20;0.20;;;9.80;99.90;;;;;;5036981;28;20052;-73
2023/04/11 10:44:19;;;;;;;0.10;0.10;;;9.80;99.90;;;;;;5055841;28;20044;-73
2023/04/11 10:46:47;;;;;;;0.10;0.10;;;9.90;99.90;;;;;;5055724;28;20063;-73
2023/04/11 10:49:34;;;;;;;0.10;0.10;;;10.00;99.90;;;;;;5055414;28;20021;-73
2023/04/11 10:52:22;;;;;;;0.20;0.20;;;9.80;99.90;;;;;;5055269;28;20021;-72
2023/04/11 10:54:52;;;;;;;0.20;0.20;;;9.80;99.90;;;;;;5054971;28;20013;-73
2023/04/11 10:57:18;;;;;;;0.10;0.10;;;9.90;99.90;;;;;;5055440;28;20502;-73
2023/04/11 10:59:50;;;;;;;0.10;0.10;;;9.90;99.90;;;;;;5055374;28;20021;-73
2023/04/11 11:02:18;;;;;;;0.20;0.20;;;9.90;99.90;;;;;;5037616;28;20067;-72
2023/04/11 11:04:43;;;;;;;0.28;0.28;;;10.10;99.90;;;;;;5054491;28;20078;-72
2023/04/11 11:07:14;;;;;;;0.20;0.20;;;10.10;99.90;;;;;;5037139;28;20029;-72
2023/04/11 11:09:40;;;;;;;0.10;0.10;;;9.90;99.90;;;;;;5055268;28;20028;-72
2023/04/11 11:12:10;;;;;;;0.15;0.15;;;9.70;99.90;;;;;;5037387;28;20485;-73
2023/04/11 11:14:37;;;;;;;0.20;0.20;;;9.70;99.90;;;;;;5055234;28;20021;-71
2023/04/11 11:17:03;;;;;;;0.20;0.20;;;9.90;99.90;;;;;;5054921;28;20078;-71
2023/04/11 11:19:29;;;;;;;0.10;0.10;;;10.20;99.90;;;;;;5055134;28;20504;-73
2023/04/11 11:21:55;;;;;;;0.10;0.10;;;10.50;99.90;;;;;;5054964;28;20506;-74
2023/04/11 11:24:27;;;;;;;0.20;0.20;;;10.40;99.90;;;;;;5055240;28;20021;-73
2023/04/11 11:26:54;;;;;;;0.20;0.20;;;10.20;99.90;;;;;;5055165;28;20075;-73
2023/04/11 11:29:33;;;;;;;0.10;0.10;;;10.50;99.90;;;;;;5054841;28;20059;-74
2023/04/11 11:32:01;;;;;;;0.20;0.20;;;10.40;99.90;;;;;;5054564;28;20056;-74
2023/04/11 11:34:32;;;;;;;0.20;0.20;;;10.20;99.90;;;;;;5054250;28;20025;-74
2023/04/11 11:37:00;;;;;;;0.20;0.20;;;10.10;99.90;;;;;;5054716;28;20372;-73
2023/04/11 11:39:29;;;;;;;0.17;0.17;;;10.00;99.90;;;;;;5037141;28;20621;-73
2023/04/11 11:41:55;;;;;;;0.20;0.20;;;10.30;99.90;;;;;;5054539;28;20458;-72
2023/04/11 11:44:24;;;;;;;0.20;0.20;;;10.20;99.90;;;;;;5055196;28;20025;-73
2023/04/11 11:47:11;;;;;;;0.20;0.20;;;10.00;99.90;;;;;;5055226;28;20104;-73
2023/04/11 11:49:51;;;;;;;0.10;0.10;;;9.80;99.90;;;;;;5058994;28;20031;-74
2023/04/11 11:52:39;;;;;;;0.20;0.20;;;9.90;99.90;;;;;;5058879;28;20486;-73
2023/04/11 11:55:08;;;;;;;0.20;0.20;;;10.40;99.90;;;;;;5057997;28;20071;-74
2023/04/11 11:57:36;;;;;;;0.20;0.20;;;10.60;99.90;;;;;;5058995;28;20017;-75
2023/04/11 12:00:06;;;;;;;0.20;0.20;;;10.60;99.90;;;;;;5058559;28;20023;-74
2023/04/11 12:02:35;;;;;;;0.20;0.20;;;10.50;99.90;;;;;;5058544;28;20021;-75
2023/04/11 12:05:04;;;;;;;0.20;0.20;;;10.20;99.90;;;;;;5058133;28;20035;-73
2023/04/11 12:07:32;;;;;;;0.20;0.20;;;9.90;99.90;;;;;;5057972;28;20474;-74
2023/04/11 12:10:07;;;;;;;0.10;0.10;;;9.90;99.90;;;;;;5058393;28;20056;-74
2023/04/11 12:12:43;;;;;;;0.20;0.20;;;10.50;99.90;;;;;;5040496;28;20025;-74
2023/04/11 12:15:17;;;;;;;0.30;0.30;;;10.60;99.90;;;;;;5058404;28;20050;-74
2023/04/11 12:17:46;;;;;;;;;;;10.40;99.90;;;;;;5040223;28;20029;-75
2023/04/11 12:20:11;;;;;;;0.20;0.20;;;10.20;99.90;;;;;;5058581;28;19930;-74
2023/04/11 12:22:37;;;;;;;0.15;0.15;;;10.20;99.90;;;;;;5057947;28;20060;-75
2023/04/11 12:25:07;;;;;;;0.17;0.17;;;10.30;99.90;;;;;;5057816;28;20052;-75
2023/04/11 12:27:36;;;;;;;0.20;0.20;;;10.20;99.90;;;;;;5058250;28;20113;-75
2023/04/11 12:30:02;;;;;;;0.10;0.10;;;10.10;99.90;;;;;;5057589;28;20028;-75
2023/04/11 12:32:29;;;;;;;0.10;0.10;;;10.00;99.90;;;;;;5058312;28;20080;-76
2023/04/11 12:37:30;;;;;;;0.20;0.20;;;9.60;99.90;;;;;;5034782;28;20050;-76
2023/04/11 12:39:56;;;;;;;0.10;0.10;;;9.20;99.90;;;;;;5036742;28;20037;-76
2023/04/11 12:42:21;;;;;;;0.10;0.10;;;8.70;99.90;;;;;;5035426;28;20056;-76
2023/04/11 12:44:47;;;;;;;0.20;0.20;;;8.50;99.90;;;;;;5036017;28;20029;-76
2023/04/11 12:47:15;;;;;;;0.20;0.20;;;8.50;99.90;;;;;;5036105;28;20083;-76
2023/04/11 12:49:41;;;;;;;0.20;0.20;;;8.50;99.90;;;;;;5036044;28;20541;-76
2023/04/11 12:52:08;;;;;;;0.17;0.17;;;8.80;99.90;;;;;;5035072;28;20029;-76
2023/04/11 12:54:34;;;;;;;0.20;0.20;;;8.90;99.90;;;;;;5018307;28;20021;-75
2023/04/11 12:57:00;;;;;;;0.20;0.20;;;8.80;99.90;;;;;;5194109;22;20510;-76
2023/04/11 12:59:28;;;;;;;0.20;0.20;;;8.80;99.90;;;;;;5055415;28;20021;-76
2023/04/11 13:01:56;;;;;;;0.20;0.20;;;8.70;99.90;;;;;;5055274;28;20061;-76
2023/04/11 13:04:22;;;;;;;0.20;0.20;;;9.00;99.90;;;;;;5054980;28;20029;-77